»·PEaware :: N5PX KSNA-L77

N5PX :: KSNA-L77

FLIGHT INFORMATION

Flight Status: Arrived
Operator: Privately registered:
United States
More flights under this callsign
Pilot: Daniel P. (20187)
Aircraft: BEECH AIRCRAFT SUPER KING AIR 350
(B350)
More flights by this aircraft type
Origin: KSNA John Wayne-Orange Co
United States
Destination: L77 Chiriaco Summit
United States
More flights between these airports :: More routes between these airports
Route: +SLI V64 SHADI
File this flight plan on PilotEdge
Remarks:
Altitude:
(Current/Filed)
11,000ft
Speed:
(Current/Filed)
240kts
Departed: 11-Feb-20 09:04 AM
Arrived: 11-Feb-20 09:36 AM
Distance/Time
Traveled:
107nm/0:32
Distance/Time
To Go:
Arrived

Flight Plot

Page will automatically refresh every two minutes.

Flight plan parsing failed; only flown route is shown


Map Options




Map Legend


Flown Route
Filed Route
Departure Airport
Arrival Airport
Navaid (VOR, NDB)
Fix

Horizontal Profiles

Position Reports

Time Latitude Longitude Heading Altitude Ground
Speed
11-Feb-20 08:34 33.674119 -117.871954 118 61ft 0kts
11-Feb-20 08:35 33.674119 -117.871954 118 61ft 0kts
11-Feb-20 08:40 33.674119 -117.871954 118 61ft 0kts
11-Feb-20 08:41 33.674119 -117.871954 118 61ft 0kts
11-Feb-20 08:42 33.674119 -117.871954 118 61ft 0kts
11-Feb-20 08:43 33.674119 -117.871954 118 61ft 0kts
11-Feb-20 08:44 33.674119 -117.871954 118 61ft 0kts
11-Feb-20 08:45 33.674119 -117.871954 118 61ft 0kts
11-Feb-20 08:46 33.674119 -117.871954 118 61ft 0kts
11-Feb-20 08:47 33.674119 -117.871954 118 61ft 0kts
11-Feb-20 08:48 33.674119 -117.871954 118 61ft 0kts
11-Feb-20 08:49 33.674119 -117.871954 118 61ft 0kts
11-Feb-20 08:49 33.674119 -117.871954 118 61ft 0kts
11-Feb-20 08:51 33.674119 -117.871954 118 61ft 0kts
11-Feb-20 08:51 33.674119 -117.871954 118 61ft 0kts
11-Feb-20 08:52 33.674119 -117.871954 118 61ft 0kts
11-Feb-20 08:53 33.674119 -117.871954 118 61ft 0kts
11-Feb-20 08:54 33.674119 -117.871954 118 61ft 0kts
11-Feb-20 08:56 33.674119 -117.871954 118 61ft 0kts
11-Feb-20 08:56 33.674119 -117.871954 118 61ft 0kts
11-Feb-20 08:57 33.674554 -117.871769 56 61ft 5kts
11-Feb-20 08:58 33.675723 -117.870338 21 61ft 11kts
11-Feb-20 08:59 33.678362 -117.868630 27 61ft 13kts
11-Feb-20 09:00 33.681108 -117.867048 39 61ft 7kts
11-Feb-20 09:01 33.681218 -117.866455 118 61ft 0kts
11-Feb-20 09:02 33.680854 -117.865705 154 61ft 7kts
11-Feb-20 09:03 33.657676 -117.877820 186 943ft 133kts
11-Feb-20 09:04 33.621633 -117.882988 187 3146ft 133kts
11-Feb-20 09:05 33.582624 -117.888542 186 4953ft 154kts
11-Feb-20 09:06 33.562380 -117.856935 51 6804ft 181kts
11-Feb-20 09:07 33.593041 -117.807733 51 8471ft 188kts
11-Feb-20 09:08 33.609804 -117.749998 104 9976ft 196kts
11-Feb-20 09:09 33.605159 -117.679642 91 10906ft 245kts
11-Feb-20 09:10 33.606610 -117.588332 89 10883ft 292kts
11-Feb-20 09:11 33.608550 -117.487573 89 10877ft 306kts
11-Feb-20 09:12 33.610514 -117.384501 89 10876ft 310kts
11-Feb-20 09:13 33.612441 -117.280727 89 10870ft 310kts
11-Feb-20 09:14 33.614061 -117.176982 90 10872ft 311kts
11-Feb-20 09:15 33.615715 -117.072813 89 10851ft 313kts
11-Feb-20 09:16 33.617387 -116.968071 89 10815ft 314kts
11-Feb-20 09:17 33.618987 -116.863608 89 10781ft 313kts
11-Feb-20 09:18 33.620468 -116.758840 89 10781ft 312kts
11-Feb-20 09:19 33.621823 -116.654570 89 10724ft 309kts
11-Feb-20 09:20 33.623180 -116.551853 89 10726ft 306kts
11-Feb-20 09:21 33.624418 -116.450352 89 10729ft 305kts
11-Feb-20 09:22 33.625638 -116.350737 89 10725ft 289kts
11-Feb-20 09:23 33.626513 -116.255913 91 10564ft 273kts
11-Feb-20 09:24 33.626707 -116.171187 91 9780ft 238kts
11-Feb-20 09:25 33.627628 -116.095168 91 9031ft 219kts
11-Feb-20 09:26 33.629027 -116.024250 91 8309ft 207kts
11-Feb-20 09:27 33.630624 -115.956695 91 7532ft 199kts
11-Feb-20 09:28 33.632389 -115.890987 90 6540ft 195kts
11-Feb-20 09:29 33.634239 -115.826317 91 5551ft 192kts
11-Feb-20 09:30 33.644478 -115.765227 35 4419ft 197kts
11-Feb-20 09:31 33.679250 -115.724244 64 3023ft 169kts
11-Feb-20 09:32 33.693525 -115.678572 77 2387ft 125kts
11-Feb-20 09:33 33.673557 -115.668456 228 2183ft 113kts
11-Feb-20 09:34 33.665647 -115.705281 257 1717ft 107kts
11-Feb-20 09:35 33.663601 -115.717681 258 1716ft 17kts
11-Feb-20 09:36 33.661787 -115.718794 81 1716ft 3kts
11-Feb-20 09:37 33.661837 -115.718760 347 1716ft 0kts
11-Feb-20 09:38 33.661837 -115.718760 347 1716ft 0kts
11-Feb-20 09:39 33.661837 -115.718760 347 1716ft 0kts
11-Feb-20 09:40 33.661837 -115.718760 347 1716ft 0kts
11-Feb-20 09:41 33.661837 -115.718760 347 1716ft 0kts
11-Feb-20 09:42 33.661837 -115.718760 347 1716ft 0kts
11-Feb-20 09:43 33.661837 -115.718760 347 1716ft 0kts
11-Feb-20 09:44 33.661837 -115.718760 347 1716ft 0kts
11-Feb-20 09:45 33.661837 -115.718760 347 1716ft 0kts
11-Feb-20 09:46 33.661837 -115.718760 347 1716ft 0kts
11-Feb-20 09:47 33.661837 -115.718760 347 1716ft 0kts
11-Feb-20 09:48 33.661837 -115.718760 347 1716ft 0kts
11-Feb-20 09:49 33.661837 -115.718760 347 1716ft 0kts
11-Feb-20 09:50 33.661837 -115.718760 347 1716ft 0kts

Navigation Log

Ident Type
Flight plan parsing failed, navigation log unavailable